sensor_id;sensor_type;location;lat;lon;timestamp;pressure;altitude;pressure_sealevel;temperature
70533;BMP180;58088;51.186;17.130;2022-08-20T00:00:29;99834.00;;;23.90
70533;BMP180;58088;51.186;17.130;2022-08-20T00:03:04;99835.60;;;23.80
70533;BMP180;58088;51.186;17.130;2022-08-20T00:05:40;99837.20;;;23.80
70533;BMP180;58088;51.186;17.130;2022-08-20T00:08:08;99838.40;;;23.76
70533;BMP180;58088;51.186;17.130;2022-08-20T00:10:39;99835.80;;;23.70
70533;BMP180;58088;51.186;17.130;2022-08-20T00:13:08;99826.60;;;23.70
70533;BMP180;58088;51.186;17.130;2022-08-20T00:15:38;99834.40;;;23.70
70533;BMP180;58088;51.186;17.130;2022-08-20T00:18:05;99830.20;;;23.70
70533;BMP180;58088;51.186;17.130;2022-08-20T00:20:39;99834.40;;;23.70
70533;BMP180;58088;51.186;17.130;2022-08-20T00:23:07;99835.40;;;23.80
70533;BMP180;58088;51.186;17.130;2022-08-20T00:25:34;99836.20;;;23.80
70533;BMP180;58088;51.186;17.130;2022-08-20T00:28:00;99843.00;;;23.80
70533;BMP180;58088;51.186;17.130;2022-08-20T00:30:29;99837.20;;;23.80
70533;BMP180;58088;51.186;17.130;2022-08-20T00:33:05;99841.60;;;23.90
70533;BMP180;58088;51.186;17.130;2022-08-20T00:35:37;99846.20;;;23.90
70533;BMP180;58088;51.186;17.130;2022-08-20T00:38:05;99845.60;;;23.90
70533;BMP180;58088;51.186;17.130;2022-08-20T00:40:55;99843.20;;;23.90
70533;BMP180;58088;51.186;17.130;2022-08-20T00:43:33;99838.00;;;23.90
70533;BMP180;58088;51.186;17.130;2022-08-20T00:46:07;99833.20;;;23.90
70533;BMP180;58088;51.186;17.130;2022-08-20T00:48:39;99833.60;;;23.90
70533;BMP180;58088;51.186;17.130;2022-08-20T00:51:17;99844.60;;;23.90
70533;BMP180;58088;51.186;17.130;2022-08-20T00:53:46;99844.40;;;23.90
70533;BMP180;58088;51.186;17.130;2022-08-20T00:56:13;99853.00;;;23.80
70533;BMP180;58088;51.186;17.130;2022-08-20T00:58:42;99849.40;;;23.78
70533;BMP180;58088;51.186;17.130;2022-08-20T01:01:11;99847.60;;;23.74
70533;BMP180;58088;51.186;17.130;2022-08-20T01:03:37;99848.00;;;23.70
70533;BMP180;58088;51.186;17.130;2022-08-20T01:06:07;99847.80;;;23.70
70533;BMP180;58088;51.186;17.130;2022-08-20T01:08:38;99854.60;;;23.70
70533;BMP180;58088;51.186;17.130;2022-08-20T01:11:06;99867.40;;;23.60
70533;BMP180;58088;51.186;17.130;2022-08-20T01:13:40;99863.60;;;23.60
70533;BMP180;58088;51.186;17.130;2022-08-20T01:16:17;99860.00;;;23.56
70533;BMP180;58088;51.186;17.130;2022-08-20T01:18:48;99862.60;;;23.60
70533;BMP180;58088;51.186;17.130;2022-08-20T01:21:16;99862.00;;;23.60
70533;BMP180;58088;51.186;17.130;2022-08-20T01:24:21;99871.20;;;23.56
70533;BMP180;58088;51.186;17.130;2022-08-20T01:26:51;99875.20;;;23.46
70533;BMP180;58088;51.186;17.130;2022-08-20T01:29:23;99875.00;;;23.40
70533;BMP180;58088;51.186;17.130;2022-08-20T01:31:50;99870.00;;;23.38
70533;BMP180;58088;51.186;17.130;2022-08-20T01:34:19;99867.80;;;23.40
70533;BMP180;58088;51.186;17.130;2022-08-20T01:36:53;99857.40;;;23.40
70533;BMP180;58088;51.186;17.130;2022-08-20T01:39:31;99852.40;;;23.40
70533;BMP180;58088;51.186;17.130;2022-08-20T01:44:40;99839.60;;;23.30
70533;BMP180;58088;51.186;17.130;2022-08-20T01:47:33;99832.00;;;23.30
70533;BMP180;58088;51.186;17.130;2022-08-20T01:50:25;99826.40;;;23.30
70533;BMP180;58088;51.186;17.130;2022-08-20T01:55:30;99826.00;;;23.20
70533;BMP180;58088;51.186;17.130;2022-08-20T01:57:58;99831.20;;;23.20
70533;BMP180;58088;51.186;17.130;2022-08-20T02:00:25;99820.20;;;23.20
70533;BMP180;58088;51.186;17.130;2022-08-20T02:02:52;99816.20;;;23.10
70533;BMP180;58088;51.186;17.130;2022-08-20T02:05:19;99816.60;;;23.20
70533;BMP180;58088;51.186;17.130;2022-08-20T02:07:47;99810.20;;;23.20
70533;BMP180;58088;51.186;17.130;2022-08-20T02:10:16;99818.20;;;23.20
70533;BMP180;58088;51.186;17.130;2022-08-20T02:12:43;99820.00;;;23.20
70533;BMP180;58088;51.186;17.130;2022-08-20T02:15:11;99823.20;;;23.10
70533;BMP180;58088;51.186;17.130;2022-08-20T02:17:38;99816.80;;;23.10
70533;BMP180;58088;51.186;17.130;2022-08-20T02:20:15;99816.40;;;23.10
70533;BMP180;58088;51.186;17.130;2022-08-20T02:22:51;99807.80;;;23.10
70533;BMP180;58088;51.186;17.130;2022-08-20T02:25:21;99811.20;;;23.10
70533;BMP180;58088;51.186;17.130;2022-08-20T02:27:51;99814.40;;;23.10
70533;BMP180;58088;51.186;17.130;2022-08-20T02:30:30;99808.40;;;23.04
70533;BMP180;58088;51.186;17.130;2022-08-20T02:33:04;99803.40;;;23.00
70533;BMP180;58088;51.186;17.130;2022-08-20T02:35:32;99809.40;;;22.90
70533;BMP180;58088;51.186;17.130;2022-08-20T02:37:59;99806.20;;;22.90
70533;BMP180;58088;51.186;17.130;2022-08-20T02:40:28;99794.40;;;22.88
70533;BMP180;58088;51.186;17.130;2022-08-20T02:42:54;99785.60;;;22.80
70533;BMP180;58088;51.186;17.130;2022-08-20T02:45:21;99780.80;;;22.80
70533;BMP180;58088;51.186;17.130;2022-08-20T02:47:49;99777.80;;;22.80
70533;BMP180;58088;51.186;17.130;2022-08-20T02:50:20;99778.00;;;22.80
70533;BMP180;58088;51.186;17.130;2022-08-20T02:52:47;99770.60;;;22.80
70533;BMP180;58088;51.186;17.130;2022-08-20T02:55:13;99773.80;;;22.80
70533;BMP180;58088;51.186;17.130;2022-08-20T02:57:42;99775.80;;;22.80
70533;BMP180;58088;51.186;17.130;2022-08-20T03:00:17;99776.00;;;22.70
70533;BMP180;58088;51.186;17.130;2022-08-20T03:02:44;99771.00;;;22.68
70533;BMP180;58088;51.186;17.130;2022-08-20T03:05:12;99768.00;;;22.60
70533;BMP180;58088;51.186;17.130;2022-08-20T03:07:49;99764.00;;;22.56
70533;BMP180;58088;51.186;17.130;2022-08-20T03:10:28;99765.20;;;22.52
70533;BMP180;58088;51.186;17.130;2022-08-20T03:12:55;99758.20;;;22.50
70533;BMP180;58088;51.186;17.130;2022-08-20T03:15:21;99750.60;;;22.50
70533;BMP180;58088;51.186;17.130;2022-08-20T03:17:48;99753.80;;;22.50
70533;BMP180;58088;51.186;17.130;2022-08-20T03:20:15;99748.20;;;22.50
70533;BMP180;58088;51.186;17.130;2022-08-20T03:22:41;99743.60;;;22.50
70533;BMP180;58088;51.186;17.130;2022-08-20T03:25:08;99748.80;;;22.50
70533;BMP180;58088;51.186;17.130;2022-08-20T03:27:35;99762.60;;;22.50
70533;BMP180;58088;51.186;17.130;2022-08-20T03:30:06;99787.80;;;22.60
70533;BMP180;58088;51.186;17.130;2022-08-20T03:32:34;99800.80;;;22.70
70533;BMP180;58088;51.186;17.130;2022-08-20T03:35:00;99808.20;;;22.80
70533;BMP180;58088;51.186;17.130;2022-08-20T03:37:32;99821.40;;;22.80
70533;BMP180;58088;51.186;17.130;2022-08-20T03:40:00;99825.40;;;22.80
70533;BMP180;58088;51.186;17.130;2022-08-20T03:42:26;99830.60;;;22.80
70533;BMP180;58088;51.186;17.130;2022-08-20T03:44:53;99829.80;;;22.80
70533;BMP180;58088;51.186;17.130;2022-08-20T03:47:19;99830.40;;;22.70
70533;BMP180;58088;51.186;17.130;2022-08-20T03:49:45;99830.00;;;22.70
70533;BMP180;58088;51.186;17.130;2022-08-20T03:52:12;99823.80;;;22.70
70533;BMP180;58088;51.186;17.130;2022-08-20T03:54:38;99810.40;;;22.60
70533;BMP180;58088;51.186;17.130;2022-08-20T03:57:05;99807.00;;;22.60
70533;BMP180;58088;51.186;17.130;2022-08-20T03:59:31;99803.60;;;22.70
70533;BMP180;58088;51.186;17.130;2022-08-20T04:01:59;99787.60;;;22.70
70533;BMP180;58088;51.186;17.130;2022-08-20T04:04:25;99782.00;;;22.62
70533;BMP180;58088;51.186;17.130;2022-08-20T04:06:52;99775.20;;;22.60
70533;BMP180;58088;51.186;17.130;2022-08-20T04:09:18;99778.20;;;22.60
70533;BMP180;58088;51.186;17.130;2022-08-20T04:11:44;99780.00;;;22.60
70533;BMP180;58088;51.186;17.130;2022-08-20T04:14:11;99787.80;;;22.60
70533;BMP180;58088;51.186;17.130;2022-08-20T04:16:38;99789.00;;;22.60
70533;BMP180;58088;51.186;17.130;2022-08-20T04:19:05;99779.20;;;22.60
70533;BMP180;58088;51.186;17.130;2022-08-20T04:21:34;99777.20;;;22.60
70533;BMP180;58088;51.186;17.130;2022-08-20T04:24:03;99777.00;;;22.52
70533;BMP180;58088;51.186;17.130;2022-08-20T04:26:31;99778.60;;;22.50
70533;BMP180;58088;51.186;17.130;2022-08-20T04:29:00;99784.40;;;22.50
70533;BMP180;58088;51.186;17.130;2022-08-20T04:31:26;99793.80;;;22.50
70533;BMP180;58088;51.186;17.130;2022-08-20T04:34:03;99798.00;;;22.50
70533;BMP180;58088;51.186;17.130;2022-08-20T04:36:30;99807.60;;;22.54
70533;BMP180;58088;51.186;17.130;2022-08-20T04:38:56;99815.80;;;22.56
70533;BMP180;58088;51.186;17.130;2022-08-20T04:41:22;99830.80;;;22.60
70533;BMP180;58088;51.186;17.130;2022-08-20T04:43:49;99833.40;;;22.60
70533;BMP180;58088;51.186;17.130;2022-08-20T04:46:15;99841.40;;;22.60
70533;BMP180;58088;51.186;17.130;2022-08-20T04:48:41;99839.60;;;22.60
70533;BMP180;58088;51.186;17.130;2022-08-20T04:51:09;99837.00;;;22.60
70533;BMP180;58088;51.186;17.130;2022-08-20T04:53:35;99827.20;;;22.70
70533;BMP180;58088;51.186;17.130;2022-08-20T04:56:02;99829.80;;;22.70
70533;BMP180;58088;51.186;17.130;2022-08-20T04:58:37;99827.20;;;22.76
70533;BMP180;58088;51.186;17.130;2022-08-20T05:01:08;99833.80;;;22.80
70533;BMP180;58088;51.186;17.130;2022-08-20T05:03:37;99832.20;;;22.84
70533;BMP180;58088;51.186;17.130;2022-08-20T05:06:09;99830.40;;;22.90
70533;BMP180;58088;51.186;17.130;2022-08-20T05:08:37;99835.20;;;22.90
70533;BMP180;58088;51.186;17.130;2022-08-20T05:11:05;99834.20;;;22.90
70533;BMP180;58088;51.186;17.130;2022-08-20T05:13:31;99831.60;;;22.90
70533;BMP180;58088;51.186;17.130;2022-08-20T05:15:58;99819.20;;;22.90
70533;BMP180;58088;51.186;17.130;2022-08-20T05:18:27;99825.60;;;22.90
70533;BMP180;58088;51.186;17.130;2022-08-20T05:20:58;99830.00;;;22.90
70533;BMP180;58088;51.186;17.130;2022-08-20T05:23:37;99835.40;;;22.90
70533;BMP180;58088;51.186;17.130;2022-08-20T05:26:10;99833.00;;;22.98
70533;BMP180;58088;51.186;17.130;2022-08-20T05:28:38;99826.40;;;23.00
70533;BMP180;58088;51.186;17.130;2022-08-20T05:31:07;99822.20;;;23.08
70533;BMP180;58088;51.186;17.130;2022-08-20T05:33:36;99823.40;;;23.10
70533;BMP180;58088;51.186;17.130;2022-08-20T05:36:05;99829.40;;;23.20
70533;BMP180;58088;51.186;17.130;2022-08-20T05:38:34;99833.60;;;23.20
70533;BMP180;58088;51.186;17.130;2022-08-20T05:41:02;99832.20;;;23.28
70533;BMP180;58088;51.186;17.130;2022-08-20T05:43:28;99828.00;;;23.32
70533;BMP180;58088;51.186;17.130;2022-08-20T05:45:56;99822.20;;;23.50
70533;BMP180;58088;51.186;17.130;2022-08-20T05:48:24;99820.00;;;23.68
70533;BMP180;58088;51.186;17.130;2022-08-20T05:50:52;99817.20;;;23.96
70533;BMP180;58088;51.186;17.130;2022-08-20T05:53:20;99818.40;;;24.18
70533;BMP180;58088;51.186;17.130;2022-08-20T05:55:47;99824.00;;;24.30
70533;BMP180;58088;51.186;17.130;2022-08-20T05:58:24;99825.00;;;24.30
70533;BMP180;58088;51.186;17.130;2022-08-20T06:00:52;99822.60;;;24.50
70533;BMP180;58088;51.186;17.130;2022-08-20T06:03:20;99827.20;;;24.70
70533;BMP180;58088;51.186;17.130;2022-08-20T06:06:06;99833.20;;;24.80
70533;BMP180;58088;51.186;17.130;2022-08-20T06:08:32;99834.60;;;24.74
70533;BMP180;58088;51.186;17.130;2022-08-20T06:10:59;99831.80;;;24.70
70533;BMP180;58088;51.186;17.130;2022-08-20T06:13:25;99830.40;;;24.70
70533;BMP180;58088;51.186;17.130;2022-08-20T06:15:52;99829.00;;;24.90
70533;BMP180;58088;51.186;17.130;2022-08-20T06:18:18;99831.40;;;25.00
70533;BMP180;58088;51.186;17.130;2022-08-20T06:20:44;99826.60;;;24.90
70533;BMP180;58088;51.186;17.130;2022-08-20T06:23:12;99831.00;;;25.00
70533;BMP180;58088;51.186;17.130;2022-08-20T06:25:39;99832.60;;;24.96
70533;BMP180;58088;51.186;17.130;2022-08-20T06:28:06;99837.00;;;24.90
70533;BMP180;58088;51.186;17.130;2022-08-20T06:30:35;99834.00;;;24.90
70533;BMP180;58088;51.186;17.130;2022-08-20T06:33:04;99829.60;;;24.90
70533;BMP180;58088;51.186;17.130;2022-08-20T06:35:34;99835.00;;;24.80
70533;BMP180;58088;51.186;17.130;2022-08-20T06:38:09;99833.40;;;24.76
70533;BMP180;58088;51.186;17.130;2022-08-20T06:40:40;99836.00;;;24.68
70533;BMP180;58088;51.186;17.130;2022-08-20T06:43:16;99837.00;;;24.60
70533;BMP180;58088;51.186;17.130;2022-08-20T06:45:46;99835.20;;;24.56
70533;BMP180;58088;51.186;17.130;2022-08-20T06:48:15;99841.00;;;24.44
70533;BMP180;58088;51.186;17.130;2022-08-20T06:50:46;99844.60;;;24.40
70533;BMP180;58088;51.186;17.130;2022-08-20T06:53:16;99842.40;;;24.40
70533;BMP180;58088;51.186;17.130;2022-08-20T06:55:51;99850.00;;;24.30
70533;BMP180;58088;51.186;17.130;2022-08-20T06:58:18;99854.80;;;24.30
70533;BMP180;58088;51.186;17.130;2022-08-20T07:00:46;99850.00;;;24.30
70533;BMP180;58088;51.186;17.130;2022-08-20T07:03:12;99852.00;;;24.26
70533;BMP180;58088;51.186;17.130;2022-08-20T07:05:43;99855.00;;;24.20
70533;BMP180;58088;51.186;17.130;2022-08-20T07:08:15;99854.00;;;24.20
70533;BMP180;58088;51.186;17.130;2022-08-20T07:10:47;99850.80;;;24.20
70533;BMP180;58088;51.186;17.130;2022-08-20T07:13:14;99848.20;;;24.20
70533;BMP180;58088;51.186;17.130;2022-08-20T07:15:43;99843.60;;;24.20
70533;BMP180;58088;51.186;17.130;2022-08-20T07:18:12;99848.40;;;24.20
70533;BMP180;58088;51.186;17.130;2022-08-20T07:20:39;99846.00;;;24.30
70533;BMP180;58088;51.186;17.130;2022-08-20T07:23:07;99850.20;;;24.30
70533;BMP180;58088;51.186;17.130;2022-08-20T07:25:35;99855.80;;;24.32
70533;BMP180;58088;51.186;17.130;2022-08-20T07:28:07;99849.40;;;24.40
70533;BMP180;58088;51.186;17.130;2022-08-20T07:30:34;99844.60;;;24.50
70533;BMP180;58088;51.186;17.130;2022-08-20T07:33:19;99846.60;;;24.60
70533;BMP180;58088;51.186;17.130;2022-08-20T07:35:45;99845.00;;;24.70
70533;BMP180;58088;51.186;17.130;2022-08-20T07:38:20;99838.40;;;24.70
70533;BMP180;58088;51.186;17.130;2022-08-20T07:40:56;99838.60;;;24.80
70533;BMP180;58088;51.186;17.130;2022-08-20T07:43:22;99846.00;;;24.80
70533;BMP180;58088;51.186;17.130;2022-08-20T07:45:54;99847.20;;;24.90
70533;BMP180;58088;51.186;17.130;2022-08-20T07:48:22;99856.20;;;24.92
70533;BMP180;58088;51.186;17.130;2022-08-20T07:51:00;99855.80;;;25.00
70533;BMP180;58088;51.186;17.130;2022-08-20T07:53:28;99851.80;;;25.10
70533;BMP180;58088;51.186;17.130;2022-08-20T07:55:55;99849.20;;;25.20
70533;BMP180;58088;51.186;17.130;2022-08-20T07:58:22;99852.20;;;25.38
70533;BMP180;58088;51.186;17.130;2022-08-20T08:00:51;99855.20;;;25.56
70533;BMP180;58088;51.186;17.130;2022-08-20T08:03:18;99858.00;;;25.74
70533;BMP180;58088;51.186;17.130;2022-08-20T08:05:47;99861.00;;;25.90
70533;BMP180;58088;51.186;17.130;2022-08-20T08:08:21;99861.00;;;25.90
70533;BMP180;58088;51.186;17.130;2022-08-20T08:10:52;99860.60;;;26.00
70533;BMP180;58088;51.186;17.130;2022-08-20T08:13:28;99856.60;;;26.00
70533;BMP180;58088;51.186;17.130;2022-08-20T08:15:59;99859.60;;;26.00
70533;BMP180;58088;51.186;17.130;2022-08-20T08:18:36;99864.40;;;26.02
70533;BMP180;58088;51.186;17.130;2022-08-20T08:21:06;99869.00;;;26.18
70533;BMP180;58088;51.186;17.130;2022-08-20T08:23:33;99873.80;;;26.20
70533;BMP180;58088;51.186;17.130;2022-08-20T08:26:00;99876.80;;;26.20
70533;BMP180;58088;51.186;17.130;2022-08-20T08:28:27;99878.60;;;26.20
70533;BMP180;58088;51.186;17.130;2022-08-20T08:30:54;99882.60;;;26.20
70533;BMP180;58088;51.186;17.130;2022-08-20T08:33:28;99886.60;;;26.30
70533;BMP180;58088;51.186;17.130;2022-08-20T08:36:03;99883.60;;;26.36
70533;BMP180;58088;51.186;17.130;2022-08-20T08:38:32;99886.60;;;26.50
70533;BMP180;58088;51.186;17.130;2022-08-20T08:41:42;99882.60;;;26.70
70533;BMP180;58088;51.186;17.130;2022-08-20T08:44:19;99880.40;;;26.90
70533;BMP180;58088;51.186;17.130;2022-08-20T08:46:55;99880.00;;;27.02
70533;BMP180;58088;51.186;17.130;2022-08-20T08:49:30;99878.60;;;27.10
70533;BMP180;58088;51.186;17.130;2022-08-20T08:52:20;99878.60;;;27.24
70533;BMP180;58088;51.186;17.130;2022-08-20T08:54:54;99877.80;;;27.48
70533;BMP180;58088;51.186;17.130;2022-08-20T08:57:21;99875.20;;;27.72
70533;BMP180;58088;51.186;17.130;2022-08-20T08:59:57;99879.20;;;27.84
70533;BMP180;58088;51.186;17.130;2022-08-20T09:02:27;99872.40;;;28.00
70533;BMP180;58088;51.186;17.130;2022-08-20T09:04:56;99867.00;;;28.30
70533;BMP180;58088;51.186;17.130;2022-08-20T09:07:30;99869.80;;;28.50
70533;BMP180;58088;51.186;17.130;2022-08-20T09:09:58;99870.80;;;28.60
70533;BMP180;58088;51.186;17.130;2022-08-20T09:12:25;99882.80;;;28.50
70533;BMP180;58088;51.186;17.130;2022-08-20T09:14:54;99881.40;;;28.60
70533;BMP180;58088;51.186;17.130;2022-08-20T09:17:22;99876.60;;;28.80
70533;BMP180;58088;51.186;17.130;2022-08-20T09:19:48;99873.20;;;28.84
70533;BMP180;58088;51.186;17.130;2022-08-20T09:22:20;99876.20;;;28.90
70533;BMP180;58088;51.186;17.130;2022-08-20T09:24:48;99879.00;;;28.80
70533;BMP180;58088;51.186;17.130;2022-08-20T09:27:15;99877.00;;;28.90
70533;BMP180;58088;51.186;17.130;2022-08-20T09:29:41;99876.60;;;29.10
70533;BMP180;58088;51.186;17.130;2022-08-20T09:32:11;99876.80;;;29.40
70533;BMP180;58088;51.186;17.130;2022-08-20T09:34:42;99881.40;;;29.60
70533;BMP180;58088;51.186;17.130;2022-08-20T09:37:09;99883.00;;;29.90
70533;BMP180;58088;51.186;17.130;2022-08-20T09:39:35;99881.60;;;29.90
70533;BMP180;58088;51.186;17.130;2022-08-20T09:42:16;99885.00;;;30.00
70533;BMP180;58088;51.186;17.130;2022-08-20T09:44:44;99876.00;;;29.94
70533;BMP180;58088;51.186;17.130;2022-08-20T09:47:11;99870.40;;;29.90
70533;BMP180;58088;51.186;17.130;2022-08-20T09:49:38;99872.80;;;29.94
70533;BMP180;58088;51.186;17.130;2022-08-20T09:52:20;99880.60;;;29.80
70533;BMP180;58088;51.186;17.130;2022-08-20T09:54:48;99880.60;;;29.90
70533;BMP180;58088;51.186;17.130;2022-08-20T09:57:15;99881.60;;;29.90
70533;BMP180;58088;51.186;17.130;2022-08-20T09:59:42;99878.40;;;29.90
70533;BMP180;58088;51.186;17.130;2022-08-20T10:02:08;99875.80;;;29.80
70533;BMP180;58088;51.186;17.130;2022-08-20T10:04:34;99878.80;;;29.80
70533;BMP180;58088;51.186;17.130;2022-08-20T10:07:00;99877.20;;;29.80
70533;BMP180;58088;51.186;17.130;2022-08-20T10:09:26;99878.40;;;29.80
70533;BMP180;58088;51.186;17.130;2022-08-20T10:11:53;99881.00;;;29.80
70533;BMP180;58088;51.186;17.130;2022-08-20T10:14:19;99879.40;;;29.70
70533;BMP180;58088;51.186;17.130;2022-08-20T10:16:45;99881.60;;;29.58
70533;BMP180;58088;51.186;17.130;2022-08-20T10:19:11;99875.40;;;29.46
70533;BMP180;58088;51.186;17.130;2022-08-20T10:21:37;99875.80;;;29.40
70533;BMP180;58088;51.186;17.130;2022-08-20T10:24:04;99877.60;;;29.40
70533;BMP180;58088;51.186;17.130;2022-08-20T10:26:30;99880.60;;;29.40
70533;BMP180;58088;51.186;17.130;2022-08-20T10:28:56;99875.80;;;29.40
70533;BMP180;58088;51.186;17.130;2022-08-20T10:31:22;99876.40;;;29.40
70533;BMP180;58088;51.186;17.130;2022-08-20T10:33:48;99880.60;;;29.40
70533;BMP180;58088;51.186;17.130;2022-08-20T10:36:19;99881.20;;;29.30
70533;BMP180;58088;51.186;17.130;2022-08-20T10:38:46;99884.60;;;29.30
70533;BMP180;58088;51.186;17.130;2022-08-20T10:41:14;99880.00;;;29.30
70533;BMP180;58088;51.186;17.130;2022-08-20T10:43:40;99881.00;;;29.40
70533;BMP180;58088;51.186;17.130;2022-08-20T10:46:06;99890.00;;;29.30
70533;BMP180;58088;51.186;17.130;2022-08-20T10:48:32;99897.00;;;29.30
70533;BMP180;58088;51.186;17.130;2022-08-20T10:50:58;99890.00;;;29.28
70533;BMP180;58088;51.186;17.130;2022-08-20T10:53:25;99895.20;;;29.20
70533;BMP180;58088;51.186;17.130;2022-08-20T10:55:53;99893.00;;;29.20
70533;BMP180;58088;51.186;17.130;2022-08-20T10:58:20;99894.40;;;29.10
70533;BMP180;58088;51.186;17.130;2022-08-20T11:00:46;99888.40;;;29.00
70533;BMP180;58088;51.186;17.130;2022-08-20T11:03:13;99890.40;;;29.00
70533;BMP180;58088;51.186;17.130;2022-08-20T11:05:39;99893.40;;;28.90
70533;BMP180;58088;51.186;17.130;2022-08-20T11:08:05;99893.20;;;28.80
70533;BMP180;58088;51.186;17.130;2022-08-20T11:10:34;99894.80;;;28.80
70533;BMP180;58088;51.186;17.130;2022-08-20T11:13:04;99888.80;;;28.70
70533;BMP180;58088;51.186;17.130;2022-08-20T11:15:35;99899.60;;;28.70
70533;BMP180;58088;51.186;17.130;2022-08-20T11:18:02;99891.80;;;28.66
70533;BMP180;58088;51.186;17.130;2022-08-20T11:20:29;99889.00;;;28.60
70533;BMP180;58088;51.186;17.130;2022-08-20T11:22:57;99885.60;;;28.60
70533;BMP180;58088;51.186;17.130;2022-08-20T11:25:24;99890.60;;;28.60
70533;BMP180;58088;51.186;17.130;2022-08-20T11:27:53;99887.60;;;28.52
70533;BMP180;58088;51.186;17.130;2022-08-20T11:30:31;99888.60;;;28.60
70533;BMP180;58088;51.186;17.130;2022-08-20T11:32:59;99882.80;;;28.60
70533;BMP180;58088;51.186;17.130;2022-08-20T11:35:29;99886.00;;;28.54
70533;BMP180;58088;51.186;17.130;2022-08-20T11:37:57;99886.20;;;28.60
70533;BMP180;58088;51.186;17.130;2022-08-20T11:40:24;99883.80;;;28.50
70533;BMP180;58088;51.186;17.130;2022-08-20T11:42:51;99878.60;;;28.50
70533;BMP180;58088;51.186;17.130;2022-08-20T11:45:17;99881.60;;;28.50
70533;BMP180;58088;51.186;17.130;2022-08-20T11:47:44;99882.80;;;28.50
70533;BMP180;58088;51.186;17.130;2022-08-20T11:50:19;99889.80;;;28.50
70533;BMP180;58088;51.186;17.130;2022-08-20T11:52:46;99875.60;;;28.46
70533;BMP180;58088;51.186;17.130;2022-08-20T11:55:15;99883.00;;;28.50
70533;BMP180;58088;51.186;17.130;2022-08-20T11:57:46;99869.40;;;28.50
70533;BMP180;58088;51.186;17.130;2022-08-20T12:00:19;99863.80;;;28.60
70533;BMP180;58088;51.186;17.130;2022-08-20T12:02:47;99860.80;;;28.70
70533;BMP180;58088;51.186;17.130;2022-08-20T12:05:17;99865.00;;;28.72
70533;BMP180;58088;51.186;17.130;2022-08-20T12:07:44;99861.40;;;28.90
70533;BMP180;58088;51.186;17.130;2022-08-20T12:10:11;99855.20;;;28.90
70533;BMP180;58088;51.186;17.130;2022-08-20T12:12:37;99861.00;;;29.00
70533;BMP180;58088;51.186;17.130;2022-08-20T12:15:07;99858.00;;;29.00
70533;BMP180;58088;51.186;17.130;2022-08-20T12:17:35;99853.20;;;29.00
70533;BMP180;58088;51.186;17.130;2022-08-20T12:20:07;99853.20;;;29.00
70533;BMP180;58088;51.186;17.130;2022-08-20T12:22:34;99857.80;;;29.00
70533;BMP180;58088;51.186;17.130;2022-08-20T12:25:00;99857.60;;;29.00
70533;BMP180;58088;51.186;17.130;2022-08-20T12:27:30;99857.20;;;29.00
70533;BMP180;58088;51.186;17.130;2022-08-20T12:30:00;99849.40;;;29.00
70533;BMP180;58088;51.186;17.130;2022-08-20T12:32:30;99844.40;;;29.10
70533;BMP180;58088;51.186;17.130;2022-08-20T12:34:57;99849.00;;;29.10
70533;BMP180;58088;51.186;17.130;2022-08-20T12:37:28;99854.60;;;29.10
70533;BMP180;58088;51.186;17.130;2022-08-20T12:39:58;99851.40;;;29.10
70533;BMP180;58088;51.186;17.130;2022-08-20T12:42:26;99847.60;;;29.12
70533;BMP180;58088;51.186;17.130;2022-08-20T12:44:54;99841.80;;;29.20
70533;BMP180;58088;51.186;17.130;2022-08-20T12:49:55;99843.00;;;29.30
70533;BMP180;58088;51.186;17.130;2022-08-20T12:52:24;99839.80;;;29.30
70533;BMP180;58088;51.186;17.130;2022-08-20T12:54:52;99838.00;;;29.30
70533;BMP180;58088;51.186;17.130;2022-08-20T12:57:26;99835.00;;;29.30
70533;BMP180;58088;51.186;17.130;2022-08-20T13:00:01;99832.20;;;29.30
70533;BMP180;58088;51.186;17.130;2022-08-20T13:02:29;99830.20;;;29.30
70533;BMP180;58088;51.186;17.130;2022-08-20T13:04:55;99828.40;;;29.30
70533;BMP180;58088;51.186;17.130;2022-08-20T13:07:21;99824.00;;;29.32
70533;BMP180;58088;51.186;17.130;2022-08-20T13:09:47;99822.60;;;29.40
70533;BMP180;58088;51.186;17.130;2022-08-20T13:12:13;99826.00;;;29.50
70533;BMP180;58088;51.186;17.130;2022-08-20T13:14:41;99826.40;;;29.54
70533;BMP180;58088;51.186;17.130;2022-08-20T13:17:07;99825.80;;;29.52
70533;BMP180;58088;51.186;17.130;2022-08-20T13:19:37;99825.40;;;29.50
70533;BMP180;58088;51.186;17.130;2022-08-20T13:22:04;99818.00;;;29.60
70533;BMP180;58088;51.186;17.130;2022-08-20T13:24:30;99815.20;;;29.60
70533;BMP180;58088;51.186;17.130;2022-08-20T13:27:13;99811.20;;;29.60
70533;BMP180;58088;51.186;17.130;2022-08-20T13:29:54;99809.00;;;29.60
70533;BMP180;58088;51.186;17.130;2022-08-20T13:32:21;99805.00;;;29.60
70533;BMP180;58088;51.186;17.130;2022-08-20T13:34:48;99812.00;;;29.70
70533;BMP180;58088;51.186;17.130;2022-08-20T13:37:18;99807.40;;;29.70
70533;BMP180;58088;51.186;17.130;2022-08-20T13:39:46;99803.60;;;29.70
70533;BMP180;58088;51.186;17.130;2022-08-20T13:42:13;99798.20;;;29.70
70533;BMP180;58088;51.186;17.130;2022-08-20T13:44:40;99795.40;;;29.80
70533;BMP180;58088;51.186;17.130;2022-08-20T13:47:27;99789.60;;;29.80
70533;BMP180;58088;51.186;17.130;2022-08-20T13:50:02;99787.40;;;29.80
70533;BMP180;58088;51.186;17.130;2022-08-20T13:52:31;99784.60;;;29.80
70533;BMP180;58088;51.186;17.130;2022-08-20T13:54:58;99790.00;;;29.80
70533;BMP180;58088;51.186;17.130;2022-08-20T13:57:26;99783.00;;;29.80
70533;BMP180;58088;51.186;17.130;2022-08-20T13:59:56;99791.40;;;29.70
70533;BMP180;58088;51.186;17.130;2022-08-20T14:02:25;99789.00;;;29.60
70533;BMP180;58088;51.186;17.130;2022-08-20T14:04:53;99786.40;;;29.60
70533;BMP180;58088;51.186;17.130;2022-08-20T14:07:27;99784.40;;;29.64
70533;BMP180;58088;51.186;17.130;2022-08-20T14:10:09;99782.40;;;29.70
70533;BMP180;58088;51.186;17.130;2022-08-20T14:12:36;99782.40;;;29.62
70533;BMP180;58088;51.186;17.130;2022-08-20T14:15:04;99789.00;;;29.60
70533;BMP180;58088;51.186;17.130;2022-08-20T14:17:35;99798.00;;;29.60